Praia da Fazenda Heliport

BR-0256 · Rio de Janeiro, Brasile

Storia di METAR BR-0256 · Praia da Fazenda Heliport

Di seguito sono riportati i METAR degli ultimi giorni. Seleziona un anno per sfogliare i METAR più vecchi, dall'anno 2007 in poi.

14 aprile 2024

Tempo Codice Tempo meteorologico Temp. Vista Base nuvolosa Vento METAR/SPECI
13:00
V
30 °C 10 km+ 3.500 ft 080° 080° 4 kt METAR SBSC 141600Z 08004KT 9999 BKN035 30/22 Q1014
12:00
V
30 °C 10 km+ - 030° 030° 5 kt METAR SBSC 141500Z 03005KT 9999 SCT030 30/22 Q1015
11:00
V
29 °C 10 km+ - 020° 020° 6 kt METAR SBSC 141400Z 02006KT 9999 FEW020 29/21 Q1016
10:00
V
29 °C 10 km+ - 010° 010° 6 kt METAR SBSC 141300Z 01006KT 9999 FEW030 29/22 Q1016
09:00
V
27 °C 10 km+ - 010° 010° 5 kt METAR SBSC 141200Z 01005KT CAVOK 27/22 Q1016
08:00
V
25 °C 10 km+ - 350° 350° 5 kt METAR SBSC 141100Z 35005KT CAVOK 25/22 Q1016
07:00
V
23 °C 10 km+ - 350° 350° 5 kt METAR SBSC 141000Z 35005KT CAVOK 23/22 Q1015
06:00
M
22 °C 7 km - 020° 020° 3 kt METAR SBSC 140900Z 02003KT 7000 NSC 22/21 Q1015
05:00
M
23 °C 7 km - 020° 020° 3 kt METAR SBSC 140800Z 02003KT 7000 SCT020 23/21 Q1014
04:00
V
23 °C 10 km+ - 010° 010° 3 kt METAR SBSC 140700Z 01003KT 9999 SCT020 23/21 Q1014
03:00
V
24 °C 10 km+ - 010° 010° 3 kt METAR SBSC 140600Z 01003KT 9999 FEW020 24/21 Q1014
02:00
V
24 °C 10 km+ - 360° 360° 3 kt METAR SBSC 140500Z 36003KT 9999 FEW020 24/21 Q1014
01:00
V
24 °C 10 km+ - 020° 020° 2 kt METAR SBSC 140400Z 02002KT CAVOK 24/21 Q1015
00:00
V
24 °C 10 km+ - 010° 010° 2 kt METAR SBSC 140300Z 01002KT CAVOK 24/21 Q1015

13 aprile 2024

Tempo Codice Tempo meteorologico Temp. Vista Base nuvolosa Vento METAR/SPECI
23:00
V
25 °C 10 km+ - 340° 340° 2 kt METAR SBSC 140200Z 34002KT CAVOK 25/21 Q1015
22:00
V
25 °C 10 km+ - 360° 360° 3 kt METAR SBSC 140100Z 36003KT CAVOK 25/21 Q1015
21:00
V
26 °C 10 km+ - 150° 150° 4 kt METAR SBSC 140000Z 15004KT CAVOK 26/22 Q1015
20:00
V
25 °C 10 km+ - 200° 200° 2 kt METAR SBSC 132300Z 20002KT CAVOK 25/22 Q1015
19:00
V
26 °C 10 km+ - 360° 360° 0 kt METAR SBSC 132200Z 00000KT CAVOK 26/21 Q1014
18:00
V
28 °C 10 km+ - 110° 110° 3 kt METAR SBSC 132100Z 11003KT CAVOK 28/22 Q1014
17:00
V
29 °C 10 km+ - 090° 090° 8 kt METAR SBSC 132000Z 09008KT 9999 FEW025 29/22 Q1013
16:00
V
30 °C 10 km+ - 100° 100° 7 kt METAR SBSC 131900Z 10007KT 9999 FEW025 30/23 Q1014
15:00
V
30 °C 10 km+ - 130° 130° 6 kt METAR SBSC 131800Z 13006KT 9999 FEW025 30/23 Q1014
14:00
V
31 °C 10 km+ - 120° 120° 8 kt METAR SBSC 131700Z 12008KT 9999 SCT030 31/23 Q1015
13:00
V
31 °C 10 km+ - 150° 150° 9 kt METAR SBSC 131600Z 15009KT 9999 SCT030 31/23 Q1015
12:00
V
31 °C 10 km+ - 040° 040° 4 kt METAR SBSC 131500Z 04004KT 9999 SCT025 31/22 Q1016
11:00
V
30 °C 10 km+ - 020° 020° 4 kt METAR SBSC 131400Z 02004KT 9999 SCT025 30/22 Q1017
10:00
V
29 °C 10 km+ - 010° 010° 6 kt METAR SBSC 131300Z 01006KT 9999 SCT025 29/22 Q1018
09:00
V
27 °C 10 km+ - 010° 010° 3 kt METAR SBSC 131200Z 01003KT 9999 FEW012 SCT050 27/23 Q1018
08:00
V
25 °C 10 km+ - 360° 360° 3 kt METAR SBSC 131100Z 36003KT 9999 FEW045 25/24 Q1018
07:00
V
23 °C 10 km+ - 020° 020° 2 kt METAR SBSC 131000Z 02002KT 9999 FEW009 SCT060 23/22 Q1018
06:00
V
22 °C 10 km+ - 010° 010° 3 kt METAR SBSC 130900Z 01003KT CAVOK 22/21 Q1017
05:00
V
22 °C 8 km - 020° 020° 5 kt METAR SBSC 130800Z 02005KT 8000 NSC 22/22 Q1017
04:00
M
22 °C 6 km - 360° 360° 4 kt METAR SBSC 130700Z 36004KT 6000 NSC 22/22 Q1017
03:00
M
22 °C 6 km - 360° 360° 4 kt METAR SBSC 130600Z 36004KT 6000 NSC 22/22 Q1017
02:00
V
22 °C 10 km+ - 010° 010° 2 kt METAR SBSC 130500Z 01002KT CAVOK 22/22 Q1017
01:00
V
23 °C 10 km+ - 360° 360° 0 kt METAR SBSC 130400Z 00000KT CAVOK 23/22 Q1017
00:00
V
23 °C 10 km+ - 360° 360° 0 kt METAR SBSC 130300Z 00000KT 9999 FEW040 23/22 Q1018

12 aprile 2024

Tempo Codice Tempo meteorologico Temp. Vista Base nuvolosa Vento METAR/SPECI
23:00
V
23 °C 10 km+ - 200° 200° 1 kt METAR SBSC 130200Z 20001KT 9999 FEW040 23/22 Q1018
22:00
V
24 °C 10 km+ - 040° 040° 2 kt METAR SBSC 130100Z 04002KT 9999 FEW040 SCT070 24/22 Q1018
21:00
V
25 °C 10 km+ 4.000 ft 130° 130° 5 kt METAR SBSC 130000Z 13005KT 9999 BKN040 25/22 Q1017
20:00
V
25 °C 10 km+ - 120° 120° 4 kt METAR SBSC 122300Z 12004KT 9999 FEW012 SCT035 25/22 Q1017
19:00
V
25 °C 10 km+ - 140° 140° 4 kt METAR SBSC 122200Z 14004KT 9999 SCT030 25/22 Q1016
18:00
V
26 °C 10 km+ - 150° 150° 5 kt METAR SBSC 122100Z 15005KT 9999 FEW020 26/22 Q1016
17:00
V
27 °C 10 km+ - 130° 130° 11 kt METAR SBSC 122000Z 13011KT 9999 FEW020 27/22 Q1016
16:00
V
29 °C 10 km+ - 140° 140° 10 kt METAR SBSC 121900Z 14010KT CAVOK 29/23 Q1016
15:00
V
29 °C 10 km+ - 160° 160° 8 kt METAR SBSC 121800Z 16008KT 9999 FEW020 SCT060 29/23 Q1016
14:00
V
28 °C 10 km+ - 150° 150° 8 kt METAR SBSC 121700Z 15008KT 9999 FEW020 SCT070 28/23 Q1017
13:00
V
28 °C 10 km+ - 130° 130° 9 kt METAR SBSC 121600Z 13009KT 9999 FEW020 SCT050 28/24 Q1017
12:00
M
28 °C 10 km+ 3.000 ft 160° 160° 8 kt METAR SBSC 121500Z 16008KT 120V210 9999 SCT015 BKN030 28/24 Q1017
11:00
M
27 °C 10 km+ 3.000 ft 160° 160° 6 kt METAR SBSC 121400Z 16006KT 120V220 9999 FEW012 BKN030 27/24 Q1018
10:00
V
27 °C 10 km+ 3.500 ft 160° 160° 5 kt METAR SBSC 121300Z 16005KT 9999 FEW025 BKN035 27/24 Q1018
09:00
V
27 °C 10 km+ 5.000 ft 070° 070° 2 kt METAR SBSC 121200Z 07002KT 9999 SCT012 SCT020 BKN050 27/24 Q1018
08:00
V
26 °C 8 km 5.000 ft 360° 360° 0 kt METAR SBSC 121100Z 00000KT 8000 FEW009 SCT020 BKN050 26/24 Q1018
07:00
M
24 °C 5 km 5.000 ft 350° 350° 2 kt METAR SBSC 121000Z 35002KT 5000 BR FEW009 SCT020 BKN050 24/23 Q1017
06:00
M
24 °C 5 km 5.000 ft 340° 340° 2 kt METAR SBSC 120900Z 34002KT 5000 BR FEW009 SCT020 BKN050 24/22 Q1017
05:00
V
24 °C 8 km - 210° 210° 5 kt METAR SBSC 120800Z 21005KT 8000 SCT020 SCT050 24/22 Q1016
04:00
V
23 °C 8 km - 160° 160° 6 kt METAR SBSC 120700Z 16006KT 8000 SCT020 SCT050 23/22 Q1016
03:00
V
23 °C 8 km - 170° 170° 4 kt METAR SBSC 120600Z 17004KT 8000 SCT020 SCT050 23/22 Q1016
Segnala modifiche